Time;durP1;ratioP1;P1;durP2;ratioP2;P2;SDS_P1;SDS_P2;PMS_P1;PMS_P2;Temp;Humidity;BMP_temperature;BMP_pressure;BME280_temperature;BME280_humidity;BME280_pressure;Samples;Min_cycle;Max_cycle;Signal;HPM_P1;HPM_P2
2022/08/03 00:01:02;;;;;;;10.63;5.28;;;;;;;17.61;100.00;101430.88;10399851;28;20116;-87
2022/08/03 00:06:03;;;;;;;11.88;6.15;;;;;;;17.39;100.00;101403.44;10387099;28;20102;-87
2022/08/03 00:11:05;;;;;;;10.18;6.15;;;;;;;17.51;100.00;101423.41;10408123;28;20443;-88
2022/08/03 00:16:06;;;;;;;12.15;5.40;;;;;;;17.44;100.00;101413.69;10408479;28;20056;-85
2022/08/03 00:21:06;;;;;;;8.20;5.53;;;;;;;17.47;100.00;101424.28;10424945;28;20093;-87
2022/08/03 00:26:07;;;;;;;10.82;6.25;;;;;;;17.40;100.00;101421.78;10392460;28;20068;-85
2022/08/03 00:31:07;;;;;;;11.90;5.65;;;;;;;17.32;100.00;101411.25;10408012;28;20633;-86
2022/08/03 00:36:08;;;;;;;11.02;5.32;;;;;;;17.29;100.00;101414.63;10391203;28;20037;-88
2022/08/03 00:41:08;;;;;;;10.07;4.63;;;;;;;17.14;100.00;101410.78;10390922;28;20037;-87
2022/08/03 00:46:09;;;;;;;9.77;4.97;;;;;;;17.20;100.00;101419.09;10407453;28;20041;-88
2022/08/03 00:51:10;;;;;;;7.43;3.92;;;;;;;17.23;100.00;101413.00;10423880;28;20033;-86
2022/08/03 00:56:14;;;;;;;13.93;5.50;;;;;;;17.10;100.00;101393.00;10389927;28;20080;-85
2022/08/03 01:01:15;;;;;;;11.27;4.45;;;;;;;17.09;100.00;101388.56;10406834;28;20038;-88
2022/08/03 01:06:23;;;;;;;17.52;5.55;;;;;;;17.12;100.00;101393.56;10406793;28;20040;-89
2022/08/03 01:11:28;;;;;;;13.10;4.05;;;;;;;17.20;100.00;101402.41;10390418;28;20037;-91
2022/08/03 01:16:40;;;;;;;12.95;3.88;;;;;;;17.17;100.00;101403.81;10406673;28;20050;-88
2022/08/03 01:22:09;;;;;;;11.82;4.57;;;;;;;17.11;100.00;101394.66;10422517;28;20034;-91
2022/08/03 01:27:20;;;;;;;7.95;3.17;;;;;;;17.01;100.00;101380.84;10422710;28;20037;-87
2022/08/03 01:32:27;;;;;;;13.30;3.25;;;;;;;17.08;100.00;101398.03;10388981;28;20128;-87
2022/08/03 01:37:33;;;;;;;7.40;2.75;;;;;;;16.97;100.00;101371.41;10406856;28;20038;-88
2022/08/03 01:42:34;;;;;;;10.75;2.90;;;;;;;17.06;100.00;101372.44;10405705;28;20067;-90
2022/08/03 01:47:34;;;;;;;7.55;2.72;;;;;;;16.92;100.00;101357.50;10405221;28;20037;-92
2022/08/03 01:52:35;;;;;;;9.98;2.78;;;;;;;16.99;100.00;101365.53;10404579;28;20029;-89
2022/08/03 01:57:37;;;;;;;7.55;2.85;;;;;;;16.92;100.00;101363.06;10389179;28;20025;-90
2022/08/03 02:02:37;;;;;;;8.38;2.92;;;;;;;17.01;100.00;101361.34;10388537;28;20120;-93
2022/08/03 02:07:39;;;;;;;11.27;3.33;;;;;;;16.98;100.00;101367.47;10404637;28;20101;-89
2022/08/03 02:12:39;;;;;;;9.48;3.67;;;;;;;16.96;100.00;101364.16;10388218;28;20119;-88
2022/08/03 02:17:40;;;;;;;8.40;3.13;;;;;;;16.90;100.00;101363.34;10402816;28;20051;-89
2022/08/03 02:22:41;;;;;;;6.72;2.78;;;;;;;16.87;100.00;101352.78;10387558;28;20056;-87
2022/08/03 02:27:46;;;;;;;11.48;3.00;;;;;;;16.89;100.00;101374.78;10386671;28;20033;-89
2022/08/03 02:32:50;;;;;;;7.13;3.05;;;;;;;16.81;100.00;101372.56;10386238;28;20247;-88
2022/08/03 02:37:55;;;;;;;8.23;3.10;;;;;;;16.72;100.00;101356.44;10403885;28;20034;-92
2022/08/03 02:42:58;;;;;;;10.40;3.13;;;;;;;16.79;100.00;101363.66;10404299;28;20044;-91
2022/08/03 02:47:59;;;;;;;7.22;3.10;;;;;;;16.72;100.00;101361.16;10403532;28;20065;-91
2022/08/03 02:53:00;;;;;;;9.20;3.92;;;;;;;16.67;100.00;101350.06;10420197;28;20105;-88
2022/08/03 02:58:02;;;;;;;9.93;3.53;;;;;;;16.60;100.00;101342.03;10368944;28;20413;-89
2022/08/03 03:03:02;;;;;;;14.15;3.78;;;;;;;16.70;100.00;101360.59;10403375;28;20068;-92
2022/08/03 03:08:03;;;;;;;8.73;3.97;;;;;;;16.55;100.00;101339.25;10402778;28;20053;-93
2022/08/03 03:13:03;;;;;;;7.95;4.00;;;;;;;16.50;100.00;101326.22;10385943;28;20071;-91
2022/08/03 03:18:05;;;;;;;11.43;5.32;;;;;;;16.47;100.00;101323.16;10401962;28;20049;-91
2022/08/03 03:23:05;;;;;;;11.05;4.78;;;;;;;16.57;100.00;101350.94;10386623;28;20116;-90
2022/08/03 03:28:06;;;;;;;12.52;4.50;;;;;;;16.60;100.00;101344.81;10383937;28;20037;-91
2022/08/03 03:33:06;;;;;;;10.45;4.47;;;;;;;16.48;100.00;101341.53;10384562;28;20045;-84
2022/08/03 03:38:07;;;;;;;13.32;4.47;;;;;;;16.53;100.00;101358.16;10385558;28;20042;-93
2022/08/03 03:43:11;;;;;;;14.23;5.70;;;;;;;16.50;100.00;101347.63;10385959;28;20076;-93
2022/08/03 03:48:12;;;;;;;11.82;5.30;;;;;;;16.48;100.00;101347.91;10385758;28;20401;-93
2022/08/03 03:53:12;;;;;;;14.07;4.95;;;;;;;16.48;100.00;101336.78;10368632;28;20034;-90
2022/08/03 03:58:13;;;;;;;12.85;5.30;;;;;;;16.45;100.00;101333.72;10384301;28;20092;-90
2022/08/03 04:03:13;;;;;;;10.40;4.57;;;;;;;16.45;100.00;101330.94;10384593;28;20040;-91
2022/08/03 04:13:38;;;;;;;11.18;4.63;;;;;;;16.50;100.00;101331.78;10404017;28;20086;-94
2022/08/03 04:18:40;;;;;;;15.48;5.55;;;;;;;16.60;100.00;101352.31;10401784;28;20517;-93
2022/08/03 04:23:43;;;;;;;9.15;4.30;;;;;;;16.54;100.00;101334.84;10401193;28;20025;-94
2022/08/03 04:28:48;;;;;;;11.00;3.80;;;;;;;16.62;100.00;101342.59;10384916;28;20041;-93
2022/08/03 04:33:49;;;;;;;10.63;4.57;;;;;;;16.52;100.00;101325.94;10385610;28;20059;-93
2022/08/03 04:39:00;;;;;;;10.55;5.15;;;;;;;16.65;100.00;101347.56;10384839;28;20033;-92
2022/08/03 04:44:01;;;;;;;10.30;4.88;;;;;;;16.59;100.00;101320.91;10402121;28;20053;-95
2022/08/03 04:49:01;;;;;;;13.60;5.68;;;;;;;16.75;100.00;101347.53;10400748;28;20064;-92
2022/08/03 04:54:02;;;;;;;13.10;5.70;;;;;;;16.94;100.00;101361.66;10374649;28;20029;-93
2022/08/03 04:59:02;;;;;;;12.70;5.07;;;;;;;17.02;100.00;101360.22;10409834;28;20030;-95
2022/08/03 05:04:03;;;;;;;12.85;4.75;;;;;;;17.23;100.00;101377.63;10409748;28;20041;-93
2022/08/03 05:09:03;;;;;;;14.23;4.88;;;;;;;17.33;100.00;101371.19;10395264;28;20092;-87
2022/08/03 05:14:04;;;;;;;9.13;4.38;;;;;;;17.42;100.00;101379.75;10393581;28;20422;-91
2022/08/03 05:19:04;;;;;;;9.35;4.18;;;;;;;17.47;100.00;101372.22;10392499;28;20045;-96
2022/08/03 05:24:05;;;;;;;12.00;4.50;;;;;;;17.47;100.00;101351.91;10409150;28;20056;-94
2022/08/03 05:29:05;;;;;;;16.65;4.00;;;;;;;17.73;100.00;101372.84;10409419;28;20057;-95
2022/08/03 05:34:06;;;;;;;10.07;3.65;;;;;;;17.87;100.00;101378.63;10408583;28;20067;-96
2022/08/03 05:39:06;;;;;;;8.13;3.50;;;;;;;18.01;100.00;101373.22;10390899;28;20029;-89
2022/08/03 05:44:07;;;;;;;15.10;4.20;;;;;;;18.17;100.00;101371.13;10389408;28;20053;-85
2022/08/03 05:49:07;;;;;;;14.88;3.65;;;;;;;18.33;100.00;101355.91;10389284;28;20029;-88
2022/08/03 05:54:08;;;;;;;10.63;3.25;;;;;;;18.60;100.00;101362.84;10388175;28;20033;-94
2022/08/03 05:59:08;;;;;;;18.73;3.58;;;;;;;18.88;100.00;101371.47;10388239;28;20521;-87
2022/08/03 06:04:09;;;;;;;7.78;3.33;;;;;;;19.05;100.00;101345.84;10404978;28;20044;-88
2022/08/03 06:09:09;;;;;;;9.30;3.00;;;;;;;19.41;100.00;101357.34;10388147;28;20033;-85
2022/08/03 06:14:10;;;;;;;15.90;3.40;;;;;;;19.65;100.00;101364.78;10404279;28;20048;-87
2022/08/03 06:19:10;;;;;;;10.98;2.97;;;;;;;19.88;100.00;101358.28;10423133;28;20041;-84
2022/08/03 06:24:11;;;;;;;10.60;3.42;;;;;;;20.03;100.00;101353.56;10387544;28;20552;-85
2022/08/03 06:29:11;;;;;;;16.25;3.42;;;;;;;20.13;100.00;101353.38;10404811;28;20056;-88
2022/08/03 06:34:12;;;;;;;11.25;3.05;;;;;;;20.31;100.00;101360.03;10387733;28;20068;-89
2022/08/03 06:39:12;;;;;;;10.82;3.50;;;;;;;20.45;100.00;101360.06;10403997;28;20053;-91
2022/08/03 06:44:13;;;;;;;12.57;3.80;;;;;;;20.73;100.00;101367.38;10405413;28;20107;-88
2022/08/03 06:49:13;;;;;;;10.27;3.50;;;;;;;20.87;100.00;101366.50;10387923;28;20040;-91
2022/08/03 06:54:14;;;;;;;12.60;3.38;;;;;;;20.88;100.00;101365.38;10405150;28;20045;-81
2022/08/03 06:59:14;;;;;;;11.82;3.33;;;;;;;21.00;100.00;101376.03;10382882;28;20432;-89
2022/08/03 07:04:15;;;;;;;10.50;3.20;;;;;;;21.23;100.00;101379.72;10398958;28;20048;-82
2022/08/03 07:09:15;;;;;;;10.77;2.72;;;;;;;21.42;100.00;101372.03;10381893;28;20057;-80
2022/08/03 07:14:16;;;;;;;10.50;2.88;;;;;;;21.41;100.00;101361.94;10413759;28;20048;-82
2022/08/03 07:19:16;;;;;;;10.63;3.42;;;;;;;21.77;100.00;101375.13;10390571;28;20952;-83
2022/08/03 07:24:17;;;;;;;11.80;3.28;;;;;;;21.82;100.00;101372.19;10451704;28;21042;-87
2022/08/03 07:29:17;;;;;;;11.23;2.25;;;;;;;21.85;100.00;101374.38;10422532;28;20036;-84
2022/08/03 07:34:18;;;;;;;17.05;3.13;;;;;;;21.94;100.00;101380.03;10405831;28;20507;-80
2022/08/03 07:39:18;;;;;;;12.30;3.47;;;;;;;21.99;100.00;101348.22;10421782;28;20833;-84
2022/08/03 07:44:19;;;;;;;13.25;3.25;;;;;;;22.55;100.00;101383.19;10438088;28;20041;-81
2022/08/03 07:49:19;;;;;;;14.50;2.97;;;;;;;22.93;100.00;101382.69;10454297;28;20063;-80
2022/08/03 07:54:20;;;;;;;17.83;2.78;;;;;;;23.06;100.00;101378.94;10421282;28;20048;-78
2022/08/03 07:59:21;;;;;;;9.35;2.33;;;;;;;22.89;100.00;101329.16;10421951;28;20044;-77
2022/08/03 08:04:21;;;;;;;11.43;3.00;;;;;;;23.35;100.00;101388.75;10454349;28;20029;-79
2022/08/03 08:09:22;;;;;;;11.70;2.72;;;;;;;23.49;100.00;101378.19;10453985;28;20497;-76
2022/08/03 08:14:22;;;;;;;12.07;3.45;;;;;;;23.38;100.00;101345.97;10421223;28;20048;-74
2022/08/03 08:19:23;;;;;;;9.90;3.55;;;;;;;23.71;100.00;101384.78;10420869;28;20029;-78
2022/08/03 08:24:23;;;;;;;9.45;2.50;;;;;;;24.00;100.00;101383.28;10454440;28;20029;-82
2022/08/03 08:29:24;;;;;;;13.35;3.17;;;;;;;24.15;100.00;101375.16;10460871;28;20040;-76
2022/08/03 08:34:24;;;;;;;13.95;3.78;;;;;;;24.29;100.00;101380.59;10454887;28;20041;-81
2022/08/03 08:39:25;;;;;;;9.65;2.75;;;;;;;24.49;100.00;101372.56;10410448;28;20044;-84
2022/08/03 08:44:25;;;;;;;11.32;2.83;;;;;;;24.44;100.00;101392.47;10408100;28;20048;-86
2022/08/03 08:49:26;;;;;;;10.85;2.75;;;;;;;24.57;100.00;101385.81;10418866;28;20515;-83
2022/08/03 08:54:27;;;;;;;9.75;2.75;;;;;;;24.70;100.00;101383.94;10427941;28;20120;-86
2022/08/03 08:59:28;;;;;;;7.22;2.05;;;;;;;24.94;100.00;101388.97;10428768;28;20421;-78
2022/08/03 09:04:28;;;;;;;12.18;3.13;;;;;;;24.98;100.00;101390.75;10427731;28;20351;-83
2022/08/03 09:09:30;;;;;;;9.93;2.03;;;;;;;25.38;100.00;101392.34;10427125;28;20524;-80
2022/08/03 09:14:30;;;;;;;9.52;2.10;;;;;;;25.73;100.00;101390.06;10462058;28;20057;-84
2022/08/03 09:19:31;;;;;;;9.88;2.00;;;;;;;25.88;100.00;101371.69;10443482;28;20053;-84
2022/08/03 09:24:32;;;;;;;13.52;2.38;;;;;;;25.89;100.00;101383.81;10426944;28;20045;-83
2022/08/03 09:29:32;;;;;;;11.18;2.30;;;;;;;26.30;100.00;101371.59;10460068;28;20025;-83
2022/08/03 09:34:33;;;;;;;15.27;2.65;;;;;;;26.70;100.00;101385.09;10442241;28;20037;-83
2022/08/03 09:39:33;;;;;;;10.65;3.08;;;;;;;26.61;100.00;101375.91;10423132;28;20044;-86
2022/08/03 09:44:41;;;;;;;14.30;2.95;;;;;;;26.57;100.00;101383.44;10392828;28;20086;-84
2022/08/03 09:49:42;;;;;;;15.43;2.95;;;;;;;26.82;100.00;101375.81;10422939;28;20060;-85
2022/08/03 09:54:42;;;;;;;13.60;2.97;;;;;;;26.64;100.00;101375.19;10389044;28;20461;-85
2022/08/03 09:59:42;;;;;;;10.25;3.08;;;;;;;26.91;100.00;101356.72;10418541;28;20102;-81
2022/08/03 10:04:47;;;;;;;10.68;2.53;;;;;;;27.22;100.00;101382.72;10398844;28;20038;-88
2022/08/03 10:10:06;;;;;;;10.48;2.95;;;;;;;27.24;100.00;101374.72;10435395;28;20041;-85
2022/08/03 10:15:07;;;;;;;12.95;2.38;;;;;;;27.56;100.00;101370.88;10428669;28;20109;-85
2022/08/03 10:20:08;;;;;;;7.72;2.10;;;;;;;27.78;100.00;101366.69;10418530;28;20040;-83
2022/08/03 10:25:11;;;;;;;13.52;2.13;;;;;;;27.94;100.00;101335.59;10439973;28;20044;-85
2022/08/03 10:30:12;;;;;;;7.57;2.40;;;;;;;28.14;100.00;101355.56;10424562;28;20481;-81
2022/08/03 10:35:14;;;;;;;12.70;2.58;;;;;;;28.32;99.50;101368.19;10430346;28;20043;-85
2022/08/03 10:40:15;;;;;;;10.77;2.55;;;;;;;28.55;94.16;101340.06;10417565;28;20045;-84
2022/08/03 10:45:20;;;;;;;8.98;2.30;;;;;;;28.49;94.04;101335.03;10427239;28;20025;-85
2022/08/03 10:50:22;;;;;;;10.48;2.17;;;;;;;28.69;92.43;101339.63;10424064;28;20440;-90
2022/08/03 11:01:11;;;;;;;18.10;2.38;;;;;;;29.28;90.73;101331.25;10443374;28;20042;-81
2022/08/03 11:06:18;;;;;;;9.35;2.95;;;;;;;29.88;89.30;101331.72;10384454;28;20643;-87
2022/08/03 11:11:18;;;;;;;12.32;2.42;;;;;;;29.89;83.50;101322.00;10402286;28;20112;-90
2022/08/03 11:16:19;;;;;;;12.27;2.28;;;;;;;30.03;81.99;101318.59;10458744;28;20051;-93
2022/08/03 11:21:20;;;;;;;10.95;2.50;;;;;;;30.20;83.73;101325.78;10392721;28;20059;-93
2022/08/03 11:26:21;;;;;;;12.50;2.53;;;;;;;30.31;80.34;101297.63;10413616;28;20147;-87
2022/08/03 11:31:21;;;;;;;15.75;2.60;;;;;;;30.85;77.88;101312.69;10437727;28;20044;-89
2022/08/03 11:36:22;;;;;;;18.23;4.00;;;;;;;31.08;75.49;101310.63;10455049;28;20044;-88
2022/08/03 11:41:32;;;;;;;17.08;3.97;;;;;;;30.88;74.82;101301.38;10406087;28;20044;-93
2022/08/03 11:46:36;;;;;;;18.92;3.72;;;;;;;30.85;74.38;101301.31;10439381;28;20076;-88
2022/08/03 11:51:37;;;;;;;16.58;3.22;;;;;;;30.93;73.41;101303.09;10405767;28;20029;-84
2022/08/03 11:56:45;;;;;;;25.88;5.13;;;;;;;31.45;73.42;101295.69;10438189;28;20033;-81
2022/08/03 12:01:46;;;;;;;14.25;3.20;;;;;;;32.30;71.62;101297.81;10421318;28;20048;-85
2022/08/03 12:07:02;;;;;;;19.25;3.35;;;;;;;32.71;67.38;101299.78;10421438;28;20064;-83
2022/08/03 12:12:03;;;;;;;14.43;3.60;;;;;;;33.02;67.18;101284.09;10422404;28;20041;-83
2022/08/03 12:17:04;;;;;;;12.93;2.50;;;;;;;33.57;64.37;101275.38;10438216;28;20041;-85
2022/08/03 12:22:04;;;;;;;22.15;3.58;;;;;;;33.16;63.82;101287.06;10405201;28;20040;-86
2022/08/03 12:27:05;;;;;;;13.63;3.00;;;;;;;33.76;62.40;101282.00;10421630;28;20405;-84
2022/08/03 12:32:05;;;;;;;20.80;3.63;;;;;;;34.27;58.97;101260.81;10407338;28;20537;-88
2022/08/03 12:37:05;;;;;;;16.08;3.45;;;;;;;34.39;57.23;101258.78;10421051;28;20490;-82
2022/08/03 12:42:06;;;;;;;20.40;3.10;;;;;;;34.27;55.26;101254.28;10451004;28;20554;-81
2022/08/03 12:47:09;;;;;;;11.57;2.75;;;;;;;33.84;56.65;101272.22;10418990;28;20036;-90
2022/08/03 12:52:10;;;;;;;17.77;3.17;;;;;;;33.85;57.10;101273.84;10436580;28;20090;-87
2022/08/03 12:57:11;;;;;;;13.00;2.72;;;;;;;34.78;55.89;101260.78;10451463;28;20033;-83
2022/08/03 13:02:19;;;;;;;13.10;2.72;;;;;;;35.11;55.63;101268.84;10452522;28;20037;-85
2022/08/03 13:07:20;;;;;;;10.23;2.10;;;;;;;34.72;52.58;101249.75;10420569;28;20041;-82
2022/08/03 13:12:25;;;;;;;11.75;3.10;;;;;;;35.01;53.58;101261.13;10420753;28;20053;-83
2022/08/03 13:17:26;;;;;;;13.77;2.92;;;;;;;35.24;51.71;101256.97;10443972;28;20052;-81
2022/08/03 13:22:29;;;;;;;11.68;2.50;;;;;;;35.15;51.82;101258.22;10410928;28;20059;-83
2022/08/03 13:27:30;;;;;;;16.73;2.95;;;;;;;34.70;51.58;101257.94;10442054;28;20039;-86
2022/08/03 13:32:31;;;;;;;17.80;2.60;;;;;;;34.86;52.08;101219.50;10396334;28;20068;-83
2022/08/03 13:37:32;;;;;;;15.20;2.38;;;;;;;35.57;51.91;101267.81;10427650;28;20108;-83
2022/08/03 13:42:33;;;;;;;8.73;2.17;;;;;;;35.84;50.00;101257.88;10420769;28;20049;-85
2022/08/03 13:47:35;;;;;;;11.55;2.55;;;;;;;35.53;48.71;101235.53;10426815;28;20033;-85
2022/08/03 13:52:36;;;;;;;8.35;1.63;;;;;;;35.29;46.72;101245.09;10450880;28;20048;-85
2022/08/03 13:57:36;;;;;;;6.97;1.70;;;;;;;35.36;46.26;101233.59;10473949;28;20040;-86
2022/08/03 14:02:37;;;;;;;9.52;2.38;;;;;;;34.73;44.77;101225.66;10435473;28;20037;-82
2022/08/03 14:07:37;;;;;;;7.15;1.52;;;;;;;34.46;43.21;101211.00;10419637;28;20043;-87
2022/08/03 14:12:39;;;;;;;9.10;1.55;;;;;;;34.08;45.64;101186.94;10436495;28;20037;-90
2022/08/03 14:17:39;;;;;;;8.98;1.75;;;;;;;34.34;45.37;101217.97;10404634;28;20048;-88
2022/08/03 14:22:40;;;;;;;9.93;1.42;;;;;;;33.68;44.11;101201.19;10420523;28;20504;-83
2022/08/03 14:27:40;;;;;;;7.75;1.63;;;;;;;33.80;44.38;101237.13;10408679;28;20517;-88
2022/08/03 14:32:41;;;;;;;8.07;1.38;;;;;;;33.89;46.12;101199.59;10419143;28;20048;-92
2022/08/03 14:37:41;;;;;;;8.25;1.38;;;;;;;33.87;46.49;101242.03;10437831;28;20037;-91
2022/08/03 14:42:42;;;;;;;8.13;2.03;;;;;;;33.80;48.61;101251.41;10402057;28;20055;-90
2022/08/03 14:47:42;;;;;;;11.43;2.47;;;;;;;33.80;49.05;101248.53;10386530;28;20049;-83
2022/08/03 14:52:43;;;;;;;13.20;2.17;;;;;;;33.85;48.77;101242.41;10385850;28;20033;-87
2022/08/03 14:57:43;;;;;;;8.85;2.10;;;;;;;33.79;48.78;101237.53;10424383;28;20033;-85
2022/08/03 15:02:44;;;;;;;15.95;2.08;;;;;;;34.21;48.57;101233.88;10411393;28;20037;-79
2022/08/03 15:07:44;;;;;;;15.18;2.42;;;;;;;34.23;48.52;101231.44;10384837;28;20041;-87
2022/08/03 15:12:45;;;;;;;9.55;2.70;;;;;;;34.66;48.10;101225.69;10435294;28;20041;-85
2022/08/03 15:17:45;;;;;;;11.90;2.70;;;;;;;34.84;47.43;101213.38;10385471;28;20046;-88
2022/08/03 15:22:46;;;;;;;9.07;2.17;;;;;;;34.52;46.84;101202.81;10432163;28;20700;-84
2022/08/03 15:27:46;;;;;;;9.30;2.08;;;;;;;34.16;47.68;101200.00;10403656;28;20087;-84
2022/08/03 15:32:47;;;;;;;14.70;2.78;;;;;;;34.72;49.28;101229.75;10365191;28;20037;-86
2022/08/03 15:37:47;;;;;;;15.27;2.42;;;;;;;34.44;48.53;101212.63;10382087;28;20029;-85
2022/08/03 15:42:48;;;;;;;12.02;2.80;;;;;;;33.54;48.62;101193.41;10413328;28;20045;-84
2022/08/03 15:47:48;;;;;;;13.02;2.67;;;;;;;33.94;47.45;101208.56;10397012;28;20044;-83
2022/08/03 15:52:49;;;;;;;10.88;2.53;;;;;;;34.18;46.93;101200.41;10381483;28;20521;-81
2022/08/03 15:57:49;;;;;;;10.00;2.35;;;;;;;34.47;45.85;101212.63;10380797;28;20087;-87
2022/08/03 16:02:50;;;;;;;11.52;2.60;;;;;;;35.25;45.20;101207.09;10380185;28;20046;-84
2022/08/03 16:07:52;;;;;;;8.60;2.20;;;;;;;35.77;42.10;101184.28;10397542;28;20037;-86
2022/08/03 16:12:52;;;;;;;12.80;3.72;;;;;;;35.96;41.33;101200.88;10380911;28;20082;-89
2022/08/03 16:17:53;;;;;;;12.27;2.13;;;;;;;34.53;41.41;101187.28;10380240;28;20076;-82
2022/08/03 16:22:53;;;;;;;14.50;2.70;;;;;;;33.30;44.28;101208.41;10380072;28;20052;-88
2022/08/03 16:27:54;;;;;;;8.82;2.10;;;;;;;32.23;47.11;101237.94;10380357;28;20030;-87
2022/08/03 16:32:54;;;;;;;11.13;2.47;;;;;;;31.33;48.48;101241.88;10379731;28;20052;-83
2022/08/03 16:37:55;;;;;;;8.10;2.30;;;;;;;30.68;50.30;101246.69;10385574;28;20504;-80
2022/08/03 16:42:55;;;;;;;9.40;2.75;;;;;;;30.16;51.54;101243.41;10433013;28;20624;-85
2022/08/03 16:47:56;;;;;;;10.85;3.47;;;;;;;29.88;53.12;101257.91;10403130;28;20133;-86
2022/08/03 16:52:56;;;;;;;7.93;2.92;;;;;;;29.65;54.56;101263.53;10424516;28;20040;-83
2022/08/03 16:58:00;;;;;;;10.95;3.63;;;;;;;29.37;55.40;101263.78;10423132;28;20091;-86
2022/08/03 17:03:02;;;;;;;10.77;3.10;;;;;;;29.17;55.97;101268.66;10409977;28;20113;-86
2022/08/03 17:08:03;;;;;;;7.50;2.70;;;;;;;29.02;57.50;101258.97;10433301;28;20033;-89
2022/08/03 17:13:03;;;;;;;10.90;2.72;;;;;;;28.83;56.42;101251.28;10406997;28;20041;-87
2022/08/03 17:18:04;;;;;;;9.23;3.22;;;;;;;28.76;58.40;101285.94;10406347;28;20623;-87
2022/08/03 17:23:37;;;;;;;8.80;2.78;;;;;;;28.57;58.53;101285.91;10393184;28;20072;-85
2022/08/03 17:28:44;;;;;;;4.60;2.42;;;;;;;28.35;59.08;101278.84;10432768;28;20041;-85
2022/08/03 17:33:46;;;;;;;10.07;2.90;;;;;;;28.25;59.49;101302.84;10438074;28;20064;-92
2022/08/03 17:38:46;;;;;;;13.93;3.08;;;;;;;28.05;60.21;101301.09;10459928;28;20033;-80
2022/08/03 17:43:47;;;;;;;10.65;2.38;;;;;;;27.92;61.20;101308.84;10442393;28;20037;-91
2022/08/03 17:48:47;;;;;;;7.38;2.20;;;;;;;27.70;62.89;101301.75;10425864;28;20067;-89
2022/08/03 17:54:19;;;;;;;8.30;2.83;;;;;;;27.58;64.21;101331.75;10424228;28;20067;-86
2022/08/03 17:59:26;;;;;;;11.77;2.47;;;;;;;27.34;64.49;101329.00;10443877;28;20041;-84
2022/08/03 18:04:27;;;;;;;6.63;1.88;;;;;;;27.32;66.21;101348.31;10408067;28;20457;-85
2022/08/03 18:09:27;;;;;;;6.15;1.95;;;;;;;27.15;66.99;101336.09;10411676;28;20032;-88
2022/08/03 18:14:43;;;;;;;9.60;2.20;;;;;;;27.03;67.44;101347.41;10457951;28;20056;-88
2022/08/03 18:19:43;;;;;;;11.60;2.15;;;;;;;26.93;68.61;101348.69;10410127;28;20087;-87
2022/08/03 18:24:44;;;;;;;8.35;1.75;;;;;;;26.73;70.04;101344.03;10441687;28;20029;-85
2022/08/03 18:29:45;;;;;;;8.35;1.65;;;;;;;26.59;71.06;101350.03;10423698;28;20092;-84
2022/08/03 18:34:45;;;;;;;4.20;1.50;;;;;;;26.36;70.45;101341.97;10456119;28;20486;-83
2022/08/03 18:39:46;;;;;;;4.75;1.77;;;;;;;26.19;70.22;101330.91;10404096;28;20045;-82
2022/08/03 18:44:46;;;;;;;14.07;4.30;;;;;;;26.08;88.89;101386.13;10417187;28;20029;-84
2022/08/03 18:50:04;;;;;;;17.52;4.13;;;;;;;25.54;100.00;101379.28;10412510;28;20481;-86
2022/08/03 18:55:07;;;;;;;21.60;5.43;;;;;;;25.03;100.00;101388.91;10398355;28;20044;-84
2022/08/03 19:00:13;;;;;;;20.35;4.82;;;;;;;24.51;100.00;101387.97;10403146;28;20475;-85
2022/08/03 19:05:15;;;;;;;19.90;5.43;;;;;;;24.04;100.00;101399.19;10398427;28;20091;-84
2022/08/03 19:10:16;;;;;;;20.77;4.38;;;;;;;23.67;100.00;101392.22;10405586;28;20037;-86
2022/08/03 19:15:18;;;;;;;19.75;4.75;;;;;;;23.51;100.00;101394.72;10409675;28;20052;-88
2022/08/03 19:20:23;;;;;;;25.85;5.15;;;;;;;23.28;100.00;101408.09;10384952;28;20041;-87
2022/08/03 19:25:25;;;;;;;19.45;5.53;;;;;;;23.14;100.00;101392.19;10399731;28;20037;-86
2022/08/03 19:30:35;;;;;;;12.02;4.18;;;;;;;23.01;100.00;101390.34;10417653;28;20033;-87
2022/08/03 19:35:39;;;;;;;16.60;4.90;;;;;;;22.88;100.00;101394.06;10399105;28;20057;-89
2022/08/03 19:40:40;;;;;;;13.68;4.18;;;;;;;22.62;100.00;101372.34;10394421;28;20042;-88
2022/08/03 19:45:41;;;;;;;15.02;4.18;;;;;;;22.54;100.00;101387.16;10415450;28;20037;-89
2022/08/03 19:50:41;;;;;;;16.75;5.22;;;;;;;22.41;100.00;101394.53;10409819;28;20033;-89
2022/08/03 19:55:42;;;;;;;18.70;4.80;;;;;;;22.25;100.00;101382.06;10406579;28;20044;-89
2022/08/03 20:00:43;;;;;;;15.07;4.93;;;;;;;22.14;100.00;101387.09;10393224;28;20056;-88
2022/08/03 20:05:45;;;;;;;14.07;4.78;;;;;;;21.88;100.00;101370.91;10399101;28;20426;-86
2022/08/03 20:10:47;;;;;;;16.77;4.72;;;;;;;21.94;100.00;101392.06;10434700;28;20468;-86
2022/08/03 20:15:47;;;;;;;23.10;6.18;;;;;;;21.71;100.00;101385.63;10439433;28;20573;-88
2022/08/03 20:20:48;;;;;;;19.48;5.82;;;;;;;21.69;100.00;101389.91;10421164;28;20041;-80
2022/08/03 20:25:54;;;;;;;25.75;6.38;;;;;;;21.55;100.00;101387.97;10430203;28;20477;-85
2022/08/03 20:30:55;;;;;;;19.20;5.60;;;;;;;21.43;100.00;101376.47;10441353;28;20040;-84
2022/08/03 20:35:55;;;;;;;17.42;7.28;;;;;;;21.51;100.00;101398.16;10440155;28;20043;-87
2022/08/03 20:40:56;;;;;;;17.83;8.00;;;;;;;21.28;100.00;101363.63;10443026;28;20089;-85
2022/08/03 20:45:56;;;;;;;22.58;8.93;;;;;;;21.41;100.00;101398.34;10400035;28;20520;-86
2022/08/03 20:50:57;;;;;;;23.17;8.20;;;;;;;21.31;100.00;101393.84;10446912;28;20036;-84
2022/08/03 20:55:58;;;;;;;20.15;7.30;;;;;;;21.17;100.00;101377.06;10444989;28;20385;-85
2022/08/03 21:00:59;;;;;;;21.65;7.53;;;;;;;21.23;100.00;101390.91;10405511;28;20040;-86
2022/08/03 21:06:00;;;;;;;18.85;7.60;;;;;;;21.14;100.00;101388.84;10430994;28;20037;-84
2022/08/03 21:11:01;;;;;;;26.85;9.18;;;;;;;20.90;100.00;101358.31;10414824;28;20068;-83
2022/08/03 21:16:01;;;;;;;21.00;8.50;;;;;;;20.96;100.00;101381.44;10425845;28;20037;-84
2022/08/03 21:21:02;;;;;;;14.88;7.40;;;;;;;20.85;100.00;101371.59;10416560;28;20037;-86
2022/08/03 21:26:02;;;;;;;20.85;8.60;;;;;;;20.49;100.00;101324.75;10407099;28;20440;-88
2022/08/03 21:31:03;;;;;;;24.70;8.70;;;;;;;20.74;100.00;101383.00;10422730;28;20091;-87
2022/08/03 21:36:04;;;;;;;16.55;8.60;;;;;;;20.58;100.00;101370.44;10424154;28;20029;-89
2022/08/03 21:41:06;;;;;;;27.17;8.45;;;;;;;20.61;100.00;101375.44;10428795;28;20044;-87
2022/08/03 21:46:07;;;;;;;21.23;8.88;;;;;;;20.52;100.00;101363.25;10439591;28;20030;-87
2022/08/03 21:51:08;;;;;;;18.27;8.20;;;;;;;20.52;100.00;101366.06;10461987;28;20120;-89
2022/08/03 21:56:10;;;;;;;23.63;9.95;;;;;;;20.47;100.00;101357.78;10408295;28;20037;-89
2022/08/03 22:01:10;;;;;;;27.80;10.30;;;;;;;20.42;100.00;101346.69;10431314;28;20048;-87
2022/08/03 22:06:11;;;;;;;22.02;9.68;;;;;;;20.41;100.00;101354.25;10428854;28;20076;-90
2022/08/03 22:11:12;;;;;;;20.38;9.25;;;;;;;20.37;100.00;101358.81;10437892;28;20040;-89
2022/08/03 22:16:12;;;;;;;21.85;9.13;;;;;;;20.35;100.00;101349.91;10416181;28;20053;-88
2022/08/03 22:21:14;;;;;;;21.83;9.85;;;;;;;20.21;100.00;101335.88;10389164;28;20040;-93
2022/08/03 22:26:21;;;;;;;23.95;10.25;;;;;;;20.15;100.00;101339.91;10424957;28;20029;-90
2022/08/03 22:31:22;;;;;;;25.55;10.43;;;;;;;20.08;100.00;101333.91;10446730;28;20040;-88
2022/08/03 22:36:23;;;;;;;24.33;10.50;;;;;;;20.05;100.00;101343.75;10445074;28;20063;-90
2022/08/03 22:41:23;;;;;;;18.33;9.18;;;;;;;19.71;100.00;101293.75;10429630;28;20440;-94
2022/08/03 22:46:24;;;;;;;22.08;10.13;;;;;;;19.95;100.00;101335.53;10414522;28;20033;-90
2022/08/03 22:51:24;;;;;;;18.65;9.70;;;;;;;19.98;100.00;101354.47;10411697;28;20044;-94
2022/08/03 22:56:25;;;;;;;23.67;9.98;;;;;;;19.97;100.00;101344.44;10446041;28;20045;-92